createdAt,value
2023-03-11T00:00:07.536Z,1.90
2023-03-11T00:05:09.767Z,2.00
2023-03-11T00:10:14.384Z,2.00
2023-03-11T00:15:16.009Z,2.00
2023-03-11T00:20:19.897Z,2.10
2023-03-11T00:25:22.281Z,2.10
2023-03-11T00:30:24.017Z,2.10
2023-03-11T00:35:27.300Z,2.20
2023-03-11T00:40:30.196Z,2.20
2023-03-11T00:45:31.790Z,2.20
2023-03-11T00:50:34.561Z,2.10
2023-03-11T00:55:36.292Z,2.00
2023-03-11T01:00:37.950Z,1.90
2023-03-11T01:05:39.725Z,1.90
2023-03-11T01:10:41.292Z,2.00
2023-03-11T01:15:43.004Z,2.00
2023-03-11T01:20:44.656Z,1.90
2023-03-11T01:25:46.258Z,1.80
2023-03-11T01:30:47.909Z,1.80
2023-03-11T01:35:49.604Z,1.80
2023-03-11T01:40:51.549Z,1.80
2023-03-11T01:45:53.164Z,1.80
2023-03-11T01:50:54.898Z,1.80
2023-03-11T01:55:56.434Z,1.90
2023-03-11T02:00:59.712Z,1.90
2023-03-11T02:06:02.686Z,1.90
2023-03-11T02:11:06.754Z,1.90
2023-03-11T02:16:08.536Z,2.00
2023-03-11T02:21:16.113Z,1.90
2023-03-11T02:26:27.897Z,1.90
2023-03-11T02:31:29.739Z,1.90
2023-03-11T02:36:32.478Z,1.90
2023-03-11T02:41:36.702Z,1.90
2023-03-11T02:46:39.828Z,1.90
2023-03-11T02:51:41.632Z,1.80
2023-03-11T02:56:43.423Z,1.80
2023-03-11T03:01:45.105Z,1.80
2023-03-11T03:06:46.652Z,1.80
2023-03-11T03:11:48.323Z,1.70
2023-03-11T03:16:50.010Z,1.70
2023-03-11T03:21:51.813Z,1.70
2023-03-11T03:26:53.439Z,1.60
2023-03-11T03:31:55.027Z,1.60
2023-03-11T03:36:56.669Z,1.60
2023-03-11T03:41:58.209Z,1.60
2023-03-11T03:46:59.798Z,1.50
2023-03-11T03:52:01.391Z,1.50
2023-03-11T03:57:03.217Z,1.40
2023-03-11T04:02:04.876Z,1.40
2023-03-11T04:07:06.562Z,1.30
2023-03-11T04:12:10.964Z,1.30
2023-03-11T04:17:13.300Z,1.20
2023-03-11T04:22:14.850Z,1.10
2023-03-11T04:27:16.476Z,1.00
2023-03-11T04:32:18.201Z,0.90
2023-03-11T04:37:19.848Z,0.80
2023-03-11T04:42:21.417Z,0.80
2023-03-11T04:47:23.065Z,0.70
2023-03-11T04:52:24.849Z,0.70
2023-03-11T04:57:26.456Z,0.60
2023-03-11T05:02:28.090Z,0.60
2023-03-11T05:07:29.616Z,0.60
2023-03-11T05:12:31.226Z,0.50
2023-03-11T05:17:32.835Z,0.50
2023-03-11T05:22:34.624Z,0.40
2023-03-11T05:27:36.164Z,0.40
2023-03-11T05:32:37.765Z,0.30
2023-03-11T05:37:39.396Z,0.20
2023-03-11T05:42:41.763Z,0.20
2023-03-11T05:47:43.395Z,0.10
2023-03-11T05:52:44.960Z,0.10
2023-03-11T05:57:46.528Z,0.00
2023-03-11T06:02:48.333Z,-0.10
2023-03-11T06:07:49.920Z,-0.10
2023-03-11T06:12:51.523Z,0.00
2023-03-11T06:17:53.164Z,-0.10
2023-03-11T06:22:54.909Z,-0.10
2023-03-11T06:27:56.481Z,0.00
2023-03-11T06:32:58.136Z,0.10
2023-03-11T06:37:59.706Z,0.20
2023-03-11T06:43:01.322Z,0.30
2023-03-11T06:48:02.955Z,0.50
2023-03-11T06:53:07.636Z,0.60
2023-03-11T06:58:09.253Z,0.80
2023-03-11T07:03:10.821Z,1.00
2023-03-11T07:08:12.375Z,1.10
2023-03-11T07:13:14.131Z,1.30
2023-03-11T07:18:16.373Z,1.40
2023-03-11T07:23:18.261Z,1.50
2023-03-11T07:28:20.199Z,1.60
2023-03-11T07:33:23.927Z,1.70
2023-03-11T07:38:27.033Z,1.80
2023-03-11T07:43:28.821Z,1.90
2023-03-11T07:48:30.539Z,2.00
2023-03-11T07:53:32.220Z,2.00
2023-03-11T07:58:33.808Z,2.10
2023-03-11T08:03:35.696Z,2.10
2023-03-11T08:08:37.311Z,2.20
2023-03-11T08:13:39.481Z,2.30
2023-03-11T08:18:41.364Z,2.50
2023-03-11T08:23:43.915Z,2.70
2023-03-11T08:28:45.820Z,3.00
2023-03-11T08:33:49.895Z,3.20
2023-03-11T08:38:51.955Z,3.20
2023-03-11T08:43:53.763Z,3.60
2023-03-11T08:48:58.601Z,4.00
2023-03-11T08:54:01.576Z,4.30
2023-03-11T08:59:03.238Z,4.80
2023-03-11T09:04:05.320Z,4.90
2023-03-11T09:09:06.911Z,4.70
2023-03-11T09:14:08.512Z,4.90
2023-03-11T09:19:10.140Z,5.00
2023-03-11T09:24:11.694Z,5.00
2023-03-11T09:29:13.269Z,5.30
2023-03-11T09:34:16.196Z,4.80
2023-03-11T09:39:17.911Z,4.90
2023-03-11T09:44:42.364Z,5.10
2023-03-11T09:49:45.304Z,5.40
2023-03-11T09:54:48.116Z,4.70
2023-03-11T09:59:49.997Z,4.30
2023-03-11T10:04:55.802Z,4.30
2023-03-11T10:09:58.270Z,4.50
2023-03-11T10:15:18.062Z,5.00
2023-03-11T10:20:40.155Z,5.40
2023-03-11T10:25:41.713Z,5.40
2023-03-11T10:30:45.008Z,5.90
2023-03-11T10:35:48.199Z,6.00
2023-03-11T10:40:51.895Z,5.60
2023-03-11T10:45:53.905Z,5.50
2023-03-11T10:50:58.833Z,5.50
2023-03-11T10:56:00.456Z,5.50
2023-03-11T11:01:21.671Z,5.30
2023-03-11T11:06:31.013Z,5.10
2023-03-11T11:11:33.881Z,5.70
2023-03-11T11:16:36.315Z,5.80
2023-03-11T11:21:37.942Z,5.60
2023-03-11T11:26:39.509Z,5.80
2023-03-11T11:31:42.331Z,5.60
2023-03-11T11:36:44.892Z,5.60
2023-03-11T11:41:48.238Z,5.50
2023-03-11T11:46:56.596Z,5.90
2023-03-11T11:52:06.653Z,5.80
2023-03-11T11:57:12.430Z,6.00
2023-03-11T12:02:40.855Z,5.60
2023-03-11T12:07:48.183Z,5.80
2023-03-11T12:12:52.767Z,5.80
2023-03-11T12:17:57.159Z,5.90
2023-03-11T12:23:28.947Z,5.70
2023-03-11T12:28:39.556Z,5.70
2023-03-11T12:33:43.955Z,5.90
2023-03-11T12:38:46.856Z,6.20
2023-03-11T12:43:48.430Z,6.00
2023-03-11T12:49:06.662Z,6.10
2023-03-11T12:54:26.991Z,5.80
2023-03-11T12:59:28.582Z,5.60
2023-03-11T13:04:39.765Z,5.90
2023-03-11T13:09:41.358Z,6.00
2023-03-11T13:14:43.009Z,6.00
2023-03-11T13:19:49.060Z,6.10
2023-03-11T13:24:51.017Z,6.20
2023-03-11T13:29:52.674Z,6.00
2023-03-11T13:35:13.678Z,6.20
2023-03-11T13:40:37.161Z,6.40
2023-03-11T13:45:38.893Z,6.40
2023-03-11T13:50:44.362Z,6.50
2023-03-11T13:55:46.845Z,6.40
2023-03-11T14:00:49.999Z,6.70
2023-03-11T14:06:11.913Z,6.80
2023-03-11T14:11:17.217Z,7.10
2023-03-11T14:16:33.519Z,6.80
2023-03-11T14:21:35.269Z,6.50
2023-03-11T14:26:36.955Z,6.50
2023-03-11T14:31:40.083Z,6.40
2023-03-11T14:36:43.368Z,6.40
2023-03-11T14:41:45.078Z,6.40
2023-03-11T14:46:47.587Z,6.30
2023-03-11T14:51:59.387Z,6.20
2023-03-11T14:57:06.435Z,6.10
2023-03-11T15:02:30.743Z,6.20
2023-03-11T15:07:34.884Z,6.40
2023-03-11T15:12:42.908Z,6.30
2023-03-11T15:17:51.799Z,6.20
2023-03-11T15:22:57.756Z,6.10
2023-03-11T15:27:59.566Z,5.90
2023-03-11T15:33:01.321Z,6.00
2023-03-11T15:38:23.653Z,5.90
2023-03-11T15:43:30.654Z,5.90
2023-03-11T15:48:32.475Z,5.70
2023-03-11T15:53:34.152Z,5.70
2023-03-11T15:58:36.232Z,5.60
2023-03-11T16:03:39.079Z,5.70
2023-03-11T16:08:40.870Z,5.60
2023-03-11T16:13:42.521Z,5.60
2023-03-11T16:18:44.116Z,5.60
2023-03-11T16:23:51.992Z,5.60
2023-03-11T16:28:53.987Z,5.50
2023-03-11T16:33:55.562Z,5.40
2023-03-11T16:38:57.144Z,5.30
2023-03-11T16:43:58.811Z,5.20
2023-03-11T16:49:00.397Z,5.10
2023-03-11T16:54:02.126Z,5.10
2023-03-11T16:59:04.294Z,5.00
2023-03-11T17:04:06.924Z,5.00
2023-03-11T17:09:08.611Z,4.90
2023-03-11T17:14:16.551Z,4.70
2023-03-11T17:19:18.764Z,4.60
2023-03-11T17:24:20.379Z,4.50
2023-03-11T17:29:22.053Z,4.40
2023-03-11T17:34:23.592Z,4.20
2023-03-11T17:39:25.214Z,4.10
2023-03-11T17:44:26.807Z,3.90
2023-03-11T17:49:28.524Z,3.80
2023-03-11T17:54:30.180Z,3.60
2023-03-11T17:59:31.737Z,3.60
2023-03-11T18:04:33.348Z,3.40
2023-03-11T18:09:34.947Z,3.40
2023-03-11T18:14:36.693Z,3.30
2023-03-11T18:19:38.294Z,3.20
2023-03-11T18:24:39.855Z,3.00
2023-03-11T18:29:41.714Z,2.90
2023-03-11T18:34:43.362Z,2.80
2023-03-11T18:39:44.923Z,2.70
2023-03-11T18:44:46.664Z,2.60
2023-03-11T18:49:48.307Z,2.50
2023-03-11T18:54:50.044Z,2.40
2023-03-11T18:59:52.047Z,2.30
2023-03-11T19:04:53.762Z,2.10
2023-03-11T19:09:55.450Z,2.10
2023-03-11T19:14:56.993Z,2.00
2023-03-11T19:19:58.698Z,1.90
2023-03-11T19:25:00.354Z,1.80
2023-03-11T19:30:01.948Z,1.70
2023-03-11T19:35:03.950Z,1.60
2023-03-11T19:40:06.298Z,1.50
2023-03-11T19:45:08.240Z,1.40
2023-03-11T19:50:10.251Z,1.30
2023-03-11T19:55:12.114Z,1.30
2023-03-11T20:00:13.961Z,1.10
2023-03-11T20:05:15.632Z,1.00
2023-03-11T20:10:17.738Z,1.00
2023-03-11T20:15:19.310Z,0.90
2023-03-11T20:20:21.774Z,0.90
2023-03-11T20:25:24.900Z,0.90
2023-03-11T20:30:26.654Z,0.90
2023-03-11T20:35:28.377Z,0.80
2023-03-11T20:40:30.347Z,0.80
2023-03-11T20:45:32.126Z,0.80
2023-03-11T20:50:33.870Z,0.70
2023-03-11T20:55:35.474Z,0.70
2023-03-11T21:00:37.537Z,0.70
2023-03-11T21:05:40.351Z,0.70
2023-03-11T21:10:41.981Z,0.70
2023-03-11T21:15:43.674Z,0.70
2023-03-11T21:20:45.439Z,0.60
2023-03-11T21:25:47.015Z,0.60
2023-03-11T21:30:56.275Z,0.50
2023-03-11T21:35:59.609Z,0.50
2023-03-11T21:41:09.345Z,0.40
2023-03-11T21:46:12.961Z,0.40
2023-03-11T21:51:15.090Z,0.30
2023-03-11T21:56:17.083Z,0.30
2023-03-11T22:01:18.777Z,0.30
2023-03-11T22:06:20.620Z,0.30
2023-03-11T22:11:22.419Z,0.30
2023-03-11T22:16:24.986Z,0.30
2023-03-11T22:21:26.744Z,0.30
2023-03-11T22:26:28.388Z,0.40
2023-03-11T22:31:29.964Z,0.40
2023-03-11T22:36:31.604Z,0.40
2023-03-11T22:41:33.168Z,0.50
2023-03-11T22:46:34.766Z,0.40
2023-03-11T22:51:36.312Z,0.50
2023-03-11T22:56:38.041Z,0.50
2023-03-11T23:01:39.704Z,0.60
2023-03-11T23:06:41.264Z,0.60
2023-03-11T23:11:42.840Z,0.70
2023-03-11T23:16:45.263Z,0.70
2023-03-11T23:21:46.883Z,0.70
2023-03-11T23:26:48.477Z,0.70
2023-03-11T23:31:50.066Z,0.70
2023-03-11T23:36:51.660Z,0.80
2023-03-11T23:41:53.334Z,0.80
2023-03-11T23:46:54.935Z,0.80
2023-03-11T23:51:56.518Z,0.90
2023-03-11T23:56:58.148Z,0.90
